Time;durP1;ratioP1;P1;durP2;ratioP2;P2;SDS_P1;SDS_P2;PMS_P1;PMS_P2;Temp;Humidity;BMP_temperature;BMP_pressure;BME280_temperature;BME280_humidity;BME280_pressure;Samples;Min_cycle;Max_cycle;Signal;HPM_P1;HPM_P2
2023/06/17 00:02:57;;;;;;;;;;;10.60;99.90;;;;;;8337450;28;19909;-80
2023/06/17 00:06:58;;;;;;;;;;;10.40;99.90;;;;;;8349821;28;19909;-80
2023/06/17 00:10:58;;;;;;;;;;;10.50;99.90;;;;;;8323239;28;20047;-79
2023/06/17 00:15:02;;;;;;;;;;;10.80;99.90;;;;;;8334036;28;19917;-80
2023/06/17 00:19:04;;;;;;;;;;;10.80;99.90;;;;;;8334361;28;20011;-80
2023/06/17 00:23:06;;;;;;;;;;;10.30;99.90;;;;;;8332657;28;19913;-80
2023/06/17 00:27:06;;;;;;;;;;;10.30;99.90;;;;;;8332956;28;20386;-80
2023/06/17 00:31:07;;;;;;;;;;;9.90;99.90;;;;;;8350974;28;19915;-80
2023/06/17 00:35:07;;;;;;;;;;;9.60;99.90;;;;;;8333113;28;20288;-79
2023/06/17 00:39:08;;;;;;;;;;;9.60;99.90;;;;;;8324046;28;19913;-80
2023/06/17 00:43:08;;;;;;;;;;;9.40;99.90;;;;;;8326497;28;19917;-80
2023/06/17 00:47:09;;;;;;;;;;;9.50;99.90;;;;;;8340939;28;19928;-81
2023/06/17 00:51:10;;;;;;;;;;;9.60;99.90;;;;;;8331573;28;19910;-80
2023/06/17 00:55:11;;;;;;;;;;;10.10;99.90;;;;;;8324248;28;19917;-80
2023/06/17 00:59:12;;;;;;;;;;;10.30;99.90;;;;;;8332605;28;19913;-80
2023/06/17 01:03:13;;;;;;;;;;;10.40;99.90;;;;;;8351539;28;20303;-80
2023/06/17 01:07:23;;;;;;;;;;;9.90;99.90;;;;;;8333155;28;20403;-78
2023/06/17 01:11:24;;;;;;;;;;;9.90;99.90;;;;;;8346420;28;19916;-80
2023/06/17 01:15:26;;;;;;;;;;;9.80;99.90;;;;;;8332556;28;19921;-78
2023/06/17 01:19:27;;;;;;;;;;;9.80;99.90;;;;;;8345473;28;19913;-79
2023/06/17 01:23:31;;;;;;;;;;;9.90;99.90;;;;;;8345793;28;20411;-79
2023/06/17 01:27:33;;;;;;;;;;;10.00;99.90;;;;;;8330392;28;20023;-80
2023/06/17 01:31:34;;;;;;;;;;;9.80;99.90;;;;;;8341408;28;20378;-79
2023/06/17 01:35:37;;;;;;;;;;;10.00;99.90;;;;;;8326816;28;19916;-81
2023/06/17 01:39:40;;;;;;;;;;;9.80;99.90;;;;;;8322793;28;20422;-79
2023/06/17 01:43:41;;;;;;;;;;;9.50;99.90;;;;;;8351625;28;19915;-79
2023/06/17 01:47:42;;;;;;;;;;;9.00;99.90;;;;;;8329342;28;20012;-78
2023/06/17 01:51:42;;;;;;;;;;;9.20;99.90;;;;;;8352437;28;20390;-79
2023/06/17 01:55:43;;;;;;;;;;;9.60;99.90;;;;;;8326883;28;20011;-79
2023/06/17 01:59:43;;;;;;;;;;;9.70;99.90;;;;;;8338045;28;19913;-79
2023/06/17 02:03:44;;;;;;;;;;;9.80;99.90;;;;;;8356842;28;19909;-80
2023/06/17 02:07:45;;;;;;;;;;;9.50;99.90;;;;;;8325664;28;20327;-79
2023/06/17 02:11:46;;;;;;;;;;;9.30;99.90;;;;;;8320644;28;20307;-79
2023/06/17 02:15:46;;;;;;;;;;;9.60;99.90;;;;;;8320777;28;19928;-78
2023/06/17 02:19:47;;;;;;;;;;;9.30;99.90;;;;;;8342171;28;20014;-79
2023/06/17 02:23:49;;;;;;;;;;;9.00;99.90;;;;;;8344652;28;19916;-78
2023/06/17 02:27:49;;;;;;;;;;;9.40;99.90;;;;;;8334561;28;19908;-79
2023/06/17 02:31:51;;;;;;;;;;;9.10;99.90;;;;;;8338242;28;19916;-78
2023/06/17 02:35:51;;;;;;;;;;;8.80;99.90;;;;;;8316041;28;19917;-80
2023/06/17 02:39:52;;;;;;;;;;;8.50;99.90;;;;;;8326120;28;19913;-79
2023/06/17 02:43:52;;;;;;;;;;;8.60;99.90;;;;;;8344711;28;19912;-80
2023/06/17 02:47:53;;;;;;;;;;;8.30;99.90;;;;;;8356273;28;19955;-80
2023/06/17 02:51:53;;;;;;;;;;;8.20;99.90;;;;;;8333393;28;19912;-79
2023/06/17 02:55:55;;;;;;;;;;;8.00;99.90;;;;;;8340250;28;19913;-79
2023/06/17 02:59:55;;;;;;;;;;;8.10;99.90;;;;;;8317869;28;19910;-80
2023/06/17 03:04:01;;;;;;;;;;;8.10;99.90;;;;;;8332202;28;19963;-80
2023/06/17 03:08:02;;;;;;;;;;;8.20;99.90;;;;;;8326286;28;19909;-79
2023/06/17 03:12:03;;;;;;;;;;;8.40;99.90;;;;;;8315541;28;20290;-78
2023/06/17 03:16:05;;;;;;;;;;;8.30;99.90;;;;;;8334680;28;19924;-79
2023/06/17 03:20:08;;;;;;;;;;;8.00;99.90;;;;;;8352505;28;19909;-78
2023/06/17 03:24:09;;;;;;;;;;;8.10;99.90;;;;;;8338500;28;20381;-80
2023/06/17 03:28:09;;;;;;;;;;;8.00;99.90;;;;;;8320851;28;19917;-79
2023/06/17 03:32:10;;;;;;;;;;;7.90;99.90;;;;;;8357667;28;20401;-79
2023/06/17 03:36:11;;;;;;;;;;;7.90;99.90;;;;;;8327479;28;19923;-79
2023/06/17 03:40:13;;;;;;;;;;;7.80;99.90;;;;;;8331224;28;19944;-80
2023/06/17 03:44:14;;;;;;;;;;;8.00;99.90;;;;;;8343019;28;19909;-80
2023/06/17 03:48:15;;;;;;;;;;;8.10;99.90;;;;;;8332767;28;20432;-79
2023/06/17 03:52:15;;;;;;;;;;;8.10;99.90;;;;;;8351348;28;19927;-79
2023/06/17 03:56:16;;;;;;;;;;;8.00;99.90;;;;;;8339762;28;20110;-80
2023/06/17 04:00:16;;;;;;;;;;;8.60;99.90;;;;;;8354202;28;19916;-81
2023/06/17 04:04:17;;;;;;;;;;;9.10;99.90;;;;;;8362970;28;19955;-81
2023/06/17 04:08:18;;;;;;;;;;;9.10;99.90;;;;;;8360577;28;19966;-81
2023/06/17 04:12:18;;;;;;;;;;;9.40;99.90;;;;;;8347868;28;19917;-82
2023/06/17 04:16:19;;;;;;;;;;;9.70;99.90;;;;;;8336741;28;19962;-81
2023/06/17 04:20:19;;;;;;;;;;;10.50;99.90;;;;;;8339304;28;19921;-81
2023/06/17 04:24:20;;;;;;;;;;;11.70;99.90;;;;;;8330924;28;20059;-81
2023/06/17 04:28:22;;;;;;;;;;;12.40;99.90;;;;;;8340543;28;20503;-81
2023/06/17 04:32:24;;;;;;;;;;;13.40;99.90;;;;;;8330218;28;19917;-84
2023/06/17 04:36:25;;;;;;;;;;;14.30;99.90;;;;;;8343005;28;19924;-78
2023/06/17 04:40:26;;;;;;;;;;;13.80;99.90;;;;;;8336002;28;20465;-78
2023/06/17 04:44:26;;;;;;;;;;;14.70;99.90;;;;;;8350975;28;19920;-79
2023/06/17 04:48:28;;;;;;;;;;;15.50;99.90;;;;;;8332671;28;19916;-78
2023/06/17 04:52:30;;;;;;;;;;;15.90;99.90;;;;;;8343961;28;19909;-78
2023/06/17 04:56:31;;;;;;;;;;;16.10;99.90;;;;;;8342871;28;19928;-79
2023/06/17 05:00:31;;;;;;;;;;;17.20;99.90;;;;;;8334123;28;19920;-79
2023/06/17 05:04:32;;;;;;;;;;;17.80;99.90;;;;;;8335115;28;20368;-78
2023/06/17 05:08:32;;;;;;;;;;;17.80;99.90;;;;;;8350682;28;19920;-78
2023/06/17 05:12:33;;;;;;;;;;;18.20;99.90;;;;;;8346024;28;20545;-79
2023/06/17 05:16:33;;;;;;;;;;;18.50;99.90;;;;;;8331246;28;20359;-79
2023/06/17 05:20:34;;;;;;;;;;;18.40;99.90;;;;;;8331903;28;19913;-78
2023/06/17 05:24:34;;;;;;;;;;;18.30;99.90;;;;;;8336019;28;19912;-78
2023/06/17 05:28:35;;;;;;;;;;;17.50;99.90;;;;;;8327842;28;20282;-79
2023/06/17 05:32:35;;;;;;;;;;;17.50;99.90;;;;;;8341419;28;19966;-79
2023/06/17 05:36:36;;;;;;;;;;;17.60;99.90;;;;;;8353940;28;19930;-79
2023/06/17 05:40:36;;;;;;;;;;;16.90;99.90;;;;;;8319688;28;19916;-80
2023/06/17 05:44:37;;;;;;;;;;;16.20;99.90;;;;;;8332290;28;19912;-79
2023/06/17 05:48:37;;;;;;;;;;;16.20;99.90;;;;;;8330153;28;19912;-78
2023/06/17 05:52:38;;;;;;;;;;;17.90;99.90;;;;;;8321552;28;19913;-78
2023/06/17 05:56:38;;;;;;;;;;;19.70;99.90;;;;;;8321597;28;19921;-79
2023/06/17 06:00:39;;;;;;;;;;;19.70;99.90;;;;;;8326408;28;19916;-79
2023/06/17 06:04:39;;;;;;;;;;;21.50;99.90;;;;;;8342136;28;19917;-79
2023/06/17 06:08:40;;;;;;;;;;;22.10;99.90;;;;;;8340533;28;19916;-79
2023/06/17 06:12:40;;;;;;;;;;;23.10;99.90;;;;;;8327306;28;19919;-80
2023/06/17 06:16:41;;;;;;;;;;;23.20;99.90;;;;;;8323323;28;19916;-80
2023/06/17 06:20:41;;;;;;;;;;;23.40;99.90;;;;;;8347581;28;19939;-80
2023/06/17 06:24:42;;;;;;;;;;;23.50;99.90;;;;;;8328663;28;19916;-79
2023/06/17 06:28:42;;;;;;;;;;;23.90;99.90;;;;;;8353541;28;19919;-79
2023/06/17 06:32:43;;;;;;;;;;;24.80;99.90;;;;;;8334874;28;19959;-79
2023/06/17 06:36:43;;;;;;;;;;;24.20;99.90;;;;;;8346108;28;20011;-78
2023/06/17 06:40:44;;;;;;;;;;;23.30;99.90;;;;;;8346510;28;19919;-79
2023/06/17 06:44:44;;;;;;;;;;;23.00;99.90;;;;;;8351683;28;19909;-79
2023/06/17 06:48:45;;;;;;;;;;;22.80;99.90;;;;;;8330740;28;19910;-79
2023/06/17 06:52:46;;;;;;;;;;;22.70;99.90;;;;;;8345287;28;19909;-79
2023/06/17 06:56:46;;;;;;;;;;;23.70;99.90;;;;;;8324692;28;19921;-79
2023/06/17 07:00:47;;;;;;;;;;;23.90;99.90;;;;;;8328665;28;20640;-79
2023/06/17 07:04:47;;;;;;;;;;;23.90;99.90;;;;;;8323853;28;19913;-80
2023/06/17 07:08:48;;;;;;;;;;;23.50;99.90;;;;;;8348942;28;19928;-80
2023/06/17 07:12:48;;;;;;;;;;;24.60;99.90;;;;;;8323097;28;19971;-81
2023/06/17 07:16:49;;;;;;;;;;;25.60;98.00;;;;;;8337341;28;20443;-80
2023/06/17 07:20:49;;;;;;;;;;;25.20;99.20;;;;;;8319507;28;19917;-80
2023/06/17 07:24:50;;;;;;;;;;;25.40;99.80;;;;;;8328708;28;20393;-81
2023/06/17 07:28:50;;;;;;;;;;;26.80;96.20;;;;;;8344142;28;19960;-80
2023/06/17 07:32:51;;;;;;;;;;;27.40;95.40;;;;;;8330231;28;20569;-80
2023/06/17 07:36:52;;;;;;;;;;;28.30;92.00;;;;;;8339384;28;19981;-80
2023/06/17 07:40:53;;;;;;;;;;;28.50;90.10;;;;;;8352764;28;19913;-80
2023/06/17 07:44:53;;;;;;;;;;;28.50;91.00;;;;;;8333259;28;19921;-79
2023/06/17 07:48:53;;;;;;;;;;;28.40;88.00;;;;;;8328730;28;19923;-79
2023/06/17 07:52:54;;;;;;;;;;;28.90;88.60;;;;;;8323283;28;19956;-79
2023/06/17 07:56:55;;;;;;;;;;;28.60;85.60;;;;;;8333280;28;20380;-80
2023/06/17 08:00:55;;;;;;;;;;;28.80;86.10;;;;;;8315437;28;20266;-79
2023/06/17 08:04:55;;;;;;;;;;;28.80;81.10;;;;;;8329817;28;19924;-79
2023/06/17 08:08:56;;;;;;;;;;;28.60;85.60;;;;;;8329817;28;19959;-80
2023/06/17 08:12:56;;;;;;;;;;;28.90;82.60;;;;;;8333438;28;20063;-79
2023/06/17 08:16:57;;;;;;;;;;;29.10;79.30;;;;;;8351735;28;19952;-80
2023/06/17 08:20:57;;;;;;;;;;;29.30;76.70;;;;;;8335495;28;19948;-79
2023/06/17 08:24:58;;;;;;;;;;;28.80;77.30;;;;;;8342089;28;19921;-79
2023/06/17 08:28:59;;;;;;;;;;;28.30;75.40;;;;;;8321720;28;19909;-79
2023/06/17 08:33:00;;;;;;;;;;;28.50;77.10;;;;;;8336773;28;19925;-78
2023/06/17 08:37:03;;;;;;;;;;;28.40;72.10;;;;;;8350715;28;20554;-80
2023/06/17 08:41:04;;;;;;;;;;;28.30;71.80;;;;;;8325943;28;19946;-80
2023/06/17 08:45:06;;;;;;;;;;;28.60;70.40;;;;;;8340462;28;19920;-81
2023/06/17 08:49:07;;;;;;;;;;;28.80;64.60;;;;;;8329885;28;20377;-80
2023/06/17 08:53:08;;;;;;;;;;;28.90;68.00;;;;;;8348120;28;20338;-80
2023/06/17 08:57:10;;;;;;;;;;;29.10;66.10;;;;;;8331557;28;19909;-79
2023/06/17 09:01:10;;;;;;;;;;;28.80;67.00;;;;;;8328409;28;19920;-80
2023/06/17 09:05:11;;;;;;;;;;;29.00;67.00;;;;;;8335355;28;19925;-81
2023/06/17 09:09:11;;;;;;;;;;;29.10;64.70;;;;;;8331321;28;19920;-80
2023/06/17 09:13:12;;;;;;;;;;;29.30;64.40;;;;;;8336184;28;19917;-80
2023/06/17 09:17:25;;;;;;;;;;;29.10;63.30;;;;;;8328808;28;19924;-80
2023/06/17 09:21:26;;;;;;;;;;;29.40;65.90;;;;;;8329159;28;20011;-79
2023/06/17 09:25:27;;;;;;;;;;;29.40;66.00;;;;;;8315505;28;19943;-79
2023/06/17 09:29:29;;;;;;;;;;;30.10;61.40;;;;;;8315325;28;19967;-78
2023/06/17 09:37:32;;;;;;;;;;;30.10;64.50;;;;;;8407064;22;20420;-81
2023/06/17 09:41:37;;;;;;;;;;;30.20;59.00;;;;;;8382422;28;19920;-80
2023/06/17 09:45:39;;;;;;;;;;;29.20;59.70;;;;;;8386607;28;19921;-81
2023/06/17 09:49:43;;;;;;;;;;;27.10;61.50;;;;;;8337569;28;19912;-78
2023/06/17 09:53:44;;;;;;;;;;;26.80;63.40;;;;;;8355254;28;19920;-80
2023/06/17 09:57:45;;;;;;;;;;;28.10;60.80;;;;;;8368920;28;19913;-81
2023/06/17 10:01:46;;;;;;;;;;;28.60;60.80;;;;;;8360006;28;20365;-78
2023/06/17 10:05:51;;;;;;;;;;;28.70;60.50;;;;;;8356329;28;19923;-78
2023/06/17 10:09:52;;;;;;;;;;;28.80;58.70;;;;;;8356587;28;20003;-80
2023/06/17 10:14:00;;;;;;;;;;;27.70;62.60;;;;;;8378979;28;19909;-79
2023/06/17 10:18:02;;;;;;;;;;;27.30;64.60;;;;;;8347519;28;19956;-79
2023/06/17 10:22:04;;;;;;;;;;;26.60;67.20;;;;;;8351606;28;19936;-79
2023/06/17 10:26:10;;;;;;;;;;;27.10;64.70;;;;;;8366565;28;19924;-80
2023/06/17 10:30:27;;;;;;;;;;;28.60;61.70;;;;;;8353125;28;19913;-81
2023/06/17 10:34:27;;;;;;;;;;;28.50;59.80;;;;;;8360401;28;20011;-80
2023/06/17 10:38:29;;;;;;;;;;;28.40;59.00;;;;;;8344858;28;20304;-81
2023/06/17 10:42:29;;;;;;;;;;;29.40;60.40;;;;;;8344374;28;20022;-80
2023/06/17 10:46:31;;;;;;;;;;;30.30;57.20;;;;;;8352206;28;19917;-80
2023/06/17 10:50:34;;;;;;;;;;;31.20;58.10;;;;;;8354096;28;20430;-78
2023/06/17 10:54:42;;;;;;;;;;;31.70;56.20;;;;;;8353928;28;19919;-80
2023/06/17 10:58:44;;;;;;;;;;;32.50;53.90;;;;;;8377216;28;19913;-81
2023/06/17 11:02:44;;;;;;;;;;;33.40;54.40;;;;;;8341558;28;19915;-81
2023/06/17 11:06:45;;;;;;;;;;;33.30;52.80;;;;;;8347363;28;20154;-79
2023/06/17 11:10:45;;;;;;;;;;;32.00;50.10;;;;;;8347114;28;19991;-80
2023/06/17 11:14:49;;;;;;;;;;;30.80;50.60;;;;;;8331466;28;19917;-78
2023/06/17 11:18:49;;;;;;;;;;;30.90;54.00;;;;;;8374493;28;19913;-78
2023/06/17 11:22:50;;;;;;;;;;;31.80;52.60;;;;;;8364357;28;20288;-79
2023/06/17 11:26:51;;;;;;;;;;;31.60;51.10;;;;;;8350263;28;19912;-80
2023/06/17 11:30:53;;;;;;;;;;;31.50;50.70;;;;;;8368133;28;19966;-80
2023/06/17 11:34:54;;;;;;;;;;;32.10;54.90;;;;;;8342939;28;20167;-80
2023/06/17 11:38:57;;;;;;;;;;;33.10;51.90;;;;;;8336516;28;19938;-80
2023/06/17 11:42:58;;;;;;;;;;;33.80;50.20;;;;;;8347613;28;20460;-79
2023/06/17 11:47:02;;;;;;;;;;;34.90;48.60;;;;;;8336642;28;19924;-80
2023/06/17 11:51:02;;;;;;;;;;;35.90;47.20;;;;;;8346416;28;19912;-80
2023/06/17 11:55:04;;;;;;;;;;;34.90;50.20;;;;;;8368860;28;20414;-79
2023/06/17 11:59:04;;;;;;;;;;;33.90;48.70;;;;;;8391437;28;19948;-78
2023/06/17 12:03:05;;;;;;;;;;;31.80;52.90;;;;;;8378417;28;19973;-78
2023/06/17 12:07:06;;;;;;;;;;;32.60;51.70;;;;;;8375863;28;19923;-79
2023/06/17 12:11:07;;;;;;;;;;;32.30;51.60;;;;;;8367404;28;19916;-78
2023/06/17 12:15:08;;;;;;;;;;;34.40;49.90;;;;;;8367098;28;19913;-78
2023/06/17 12:19:20;;;;;;;;;;;36.00;47.60;;;;;;8346931;28;19913;-79
2023/06/17 12:23:21;;;;;;;;;;;;;;;;;;8372441;28;20313;-78
2023/06/17 12:27:22;;;;;;;;;;;;;;;;;;8364261;28;19916;-78
2023/06/17 12:31:23;;;;;;;;;;;;;;;;;;8347888;28;20124;-79
2023/06/17 12:35:24;;;;;;;;;;;;;;;;;;8350222;28;19936;-81
2023/06/17 12:39:25;;;;;;;;;;;39.50;49.70;;;;;;8359549;28;19956;-78
2023/06/17 12:43:26;;;;;;;;;;;38.90;52.00;;;;;;8375732;28;19928;-78
2023/06/17 12:47:26;;;;;;;;;;;38.40;49.50;;;;;;8368884;28;19921;-80
2023/06/17 12:51:27;;;;;;;;;;;36.90;50.90;;;;;;8365079;28;19912;-78
2023/06/17 12:55:27;;;;;;;;;;;34.00;53.00;;;;;;8347620;28;19920;-76
2023/06/17 12:59:27;;;;;;;;;;;30.40;58.90;;;;;;8379377;28;20342;-77
2023/06/17 13:03:28;;;;;;;;;;;29.50;62.40;;;;;;8345846;28;19917;-78
2023/06/17 13:07:32;;;;;;;;;;;29.70;61.80;;;;;;8378723;28;19921;-79
2023/06/17 13:11:33;;;;;;;;;;;31.10;57.60;;;;;;8359821;28;19913;-77
2023/06/17 13:15:33;;;;;;;;;;;31.80;58.80;;;;;;8354707;28;20384;-78
2023/06/17 13:19:34;;;;;;;;;;;34.50;54.90;;;;;;8356223;28;19920;-79
2023/06/17 13:23:35;;;;;;;;;;;33.70;54.90;;;;;;8372131;28;19913;-79
2023/06/17 13:27:35;;;;;;;;;;;34.60;55.80;;;;;;8375990;28;19939;-78
2023/06/17 13:31:36;;;;;;;;;;;37.50;51.10;;;;;;8360422;28;19913;-80
2023/06/17 13:35:37;;;;;;;;;;;35.10;53.80;;;;;;8360716;28;19964;-77
2023/06/17 13:39:37;;;;;;;;;;;34.50;54.30;;;;;;8355034;28;20415;-77
2023/06/17 13:43:39;;;;;;;;;;;35.10;54.20;;;;;;8372435;28;19913;-77
2023/06/17 13:47:40;;;;;;;;;;;34.30;57.40;;;;;;8372345;28;19917;-78
2023/06/17 13:51:40;;;;;;;;;;;33.80;55.40;;;;;;8356963;28;19920;-78
2023/06/17 13:55:41;;;;;;;;;;;32.10;57.60;;;;;;8357641;28;19959;-77
2023/06/17 13:59:41;;;;;;;;;;;31.20;60.20;;;;;;8379083;28;19958;-78
2023/06/17 14:03:42;;;;;;;;;;;31.30;59.80;;;;;;8355321;28;19913;-78
2023/06/17 14:07:42;;;;;;;;;;;32.70;62.70;;;;;;8372690;28;20424;-79
2023/06/17 14:11:43;;;;;;;;;;;34.60;57.20;;;;;;8384621;28;20431;-77
2023/06/17 14:15:43;;;;;;;;;;;35.70;56.90;;;;;;8350131;28;19924;-77
2023/06/17 14:19:44;;;;;;;;;;;33.60;58.00;;;;;;8359737;28;19912;-77
2023/06/17 14:24:00;;;;;;;;;;;32.30;61.10;;;;;;8395797;28;19959;-78
2023/06/17 14:28:00;;;;;;;;;;;31.60;63.40;;;;;;8373741;28;19928;-79
2023/06/17 14:32:01;;;;;;;;;;;33.20;59.70;;;;;;8363433;28;20652;-78
2023/06/17 14:36:02;;;;;;;;;;;32.40;59.40;;;;;;8365510;28;19924;-78
2023/06/17 14:40:02;;;;;;;;;;;32.90;60.10;;;;;;8343116;28;19917;-78
2023/06/17 14:44:03;;;;;;;;;;;33.70;60.30;;;;;;8360521;28;20435;-79
2023/06/17 14:48:03;;;;;;;;;;;35.90;56.30;;;;;;8355357;28;19927;-78
2023/06/17 14:52:04;;;;;;;;;;;38.80;55.60;;;;;;8354540;28;19950;-78
2023/06/17 14:56:23;;;;;;;;;;;39.30;52.80;;;;;;8353292;28;19915;-78
2023/06/17 15:00:24;;;;;;;;;;;39.40;53.30;;;;;;8339567;28;19968;-78
2023/06/17 15:04:24;;;;;;;;;;;40.60;50.50;;;;;;8368786;28;19928;-79
2023/06/17 15:08:25;;;;;;;;;;;40.10;50.00;;;;;;8377371;28;20324;-78
2023/06/17 15:12:25;;;;;;;;;;;40.50;51.00;;;;;;8351604;28;19920;-77
2023/06/17 15:16:26;;;;;;;;;;;39.30;51.40;;;;;;8350414;28;19912;-78
2023/06/17 15:20:26;;;;;;;;;;;36.70;53.00;;;;;;8354839;28;19921;-78
2023/06/17 15:24:27;;;;;;;;;;;36.30;53.60;;;;;;8346203;28;19923;-77
2023/06/17 15:28:27;;;;;;;;;;;35.30;55.60;;;;;;8368335;28;19913;-77
2023/06/17 15:32:28;;;;;;;;;;;33.50;57.50;;;;;;8364838;28;19916;-77
2023/06/17 15:36:28;;;;;;;;;;;32.00;61.00;;;;;;8374973;28;19924;-77
2023/06/17 15:40:29;;;;;;;;;;;30.80;60.50;;;;;;8377010;28;20558;-78
2023/06/17 15:44:30;;;;;;;;;;;30.10;61.40;;;;;;8365260;28;19917;-78
2023/06/17 15:48:34;;;;;;;;;;;29.80;64.70;;;;;;8389648;28;19927;-77
2023/06/17 15:52:35;;;;;;;;;;;29.90;64.20;;;;;;8369992;28;20634;-78
2023/06/17 15:56:36;;;;;;;;;;;29.90;65.20;;;;;;8363547;28;19920;-77
2023/06/17 16:00:36;;;;;;;;;;;29.90;63.60;;;;;;8356707;28;19909;-77
2023/06/17 16:04:37;;;;;;;;;;;29.70;62.00;;;;;;8357253;28;19920;-77
2023/06/17 16:08:38;;;;;;;;;;;29.40;62.70;;;;;;8367700;28;20567;-77
2023/06/17 16:12:39;;;;;;;;;;;29.20;60.50;;;;;;8378995;28;19920;-77
2023/06/17 16:16:39;;;;;;;;;;;29.20;63.60;;;;;;8367713;28;19920;-77
2023/06/17 16:20:40;;;;;;;;;;;29.40;61.90;;;;;;8361556;28;19920;-78
2023/06/17 16:24:41;;;;;;;;;;;29.60;60.90;;;;;;8377438;28;19919;-77
2023/06/17 16:28:41;;;;;;;;;;;29.40;63.30;;;;;;8361281;28;19974;-78
2023/06/17 16:32:42;;;;;;;;;;;29.00;65.10;;;;;;8372883;28;19966;-77
2023/06/17 16:36:42;;;;;;;;;;;28.80;65.70;;;;;;8354683;28;20210;-78
2023/06/17 16:40:43;;;;;;;;;;;28.90;61.90;;;;;;8374729;28;20036;-77
2023/06/17 16:44:43;;;;;;;;;;;29.20;65.50;;;;;;8345316;28;20396;-78
2023/06/17 16:48:44;;;;;;;;;;;29.20;62.30;;;;;;8383769;28;19920;-78
2023/06/17 16:52:45;;;;;;;;;;;28.90;66.00;;;;;;8389259;28;19965;-78
2023/06/17 16:56:45;;;;;;;;;;;28.50;69.30;;;;;;8370712;28;20276;-78
2023/06/17 17:00:46;;;;;;;;;;;28.60;69.30;;;;;;8383465;28;20613;-79
2023/06/17 17:04:46;;;;;;;;;;;28.50;67.80;;;;;;8362701;28;19924;-79
2023/06/17 17:08:50;;;;;;;;;;;28.20;69.10;;;;;;8364643;28;19919;-78
2023/06/17 17:12:51;;;;;;;;;;;28.10;70.70;;;;;;8364069;28;20609;-78
2023/06/17 17:16:51;;;;;;;;;;;27.80;74.10;;;;;;8365470;28;20287;-78
2023/06/17 17:20:52;;;;;;;;;;;27.60;74.70;;;;;;8388386;28;19913;-78
2023/06/17 17:24:52;;;;;;;;;;;27.20;73.80;;;;;;8374300;28;19974;-78
2023/06/17 17:28:52;;;;;;;;;;;27.00;73.40;;;;;;8330920;28;19913;-78
2023/06/17 17:32:54;;;;;;;;;;;26.80;75.50;;;;;;8333454;28;20153;-78
2023/06/17 17:36:54;;;;;;;;;;;26.70;84.40;;;;;;8372943;28;20459;-78
2023/06/17 17:40:55;;;;;;;;;;;26.50;85.20;;;;;;8363804;28;19909;-78
2023/06/17 17:44:55;;;;;;;;;;;26.00;88.50;;;;;;8362947;28;20296;-79
2023/06/17 17:48:58;;;;;;;;;;;25.70;90.30;;;;;;8380810;28;20201;-78
2023/06/17 17:52:58;;;;;;;;;;;25.40;91.70;;;;;;8363576;28;19908;-78
2023/06/17 17:56:58;;;;;;;;;;;25.20;89.40;;;;;;8362907;28;20292;-78
2023/06/17 18:00:59;;;;;;;;;;;25.10;86.00;;;;;;8356731;28;20054;-79
2023/06/17 18:04:59;;;;;;;;;;;25.20;82.60;;;;;;8355931;28;20148;-78
2023/06/17 18:09:00;;;;;;;;;;;25.10;81.70;;;;;;8338119;28;19916;-78
2023/06/17 18:13:01;;;;;;;;;;;24.60;81.80;;;;;;8330896;28;19909;-78
2023/06/17 18:17:02;;;;;;;;;;;24.20;82.90;;;;;;8330634;28;19913;-78
2023/06/17 18:21:02;;;;;;;;;;;24.00;80.70;;;;;;8380521;28;20336;-78
2023/06/17 18:25:03;;;;;;;;;;;24.10;87.90;;;;;;8380909;28;20280;-77
2023/06/17 18:29:04;;;;;;;;;;;23.50;91.30;;;;;;8380445;28;19924;-78
2023/06/17 18:33:05;;;;;;;;;;;23.00;90.30;;;;;;8362783;28;19935;-78
2023/06/17 18:37:05;;;;;;;;;;;22.70;88.80;;;;;;8379375;28;20365;-78
2023/06/17 18:41:06;;;;;;;;;;;22.60;88.90;;;;;;8346349;28;19966;-78
2023/06/17 18:45:08;;;;;;;;;;;22.20;91.80;;;;;;8380193;28;19919;-78
2023/06/17 18:49:18;;;;;;;;;;;21.80;91.40;;;;;;8362315;28;20400;-78
2023/06/17 18:53:18;;;;;;;;;;;21.80;90.40;;;;;;8358285;28;20331;-78
2023/06/17 18:57:19;;;;;;;;;;;21.70;91.30;;;;;;8352375;28;20159;-77
2023/06/17 19:01:19;;;;;;;;;;;21.80;92.00;;;;;;8381676;28;19912;-77
2023/06/17 19:05:20;;;;;;;;;;;21.10;92.20;;;;;;8354848;28;20127;-78
2023/06/17 19:09:20;;;;;;;;;;;21.40;91.90;;;;;;8333386;28;19912;-78
2023/06/17 19:13:21;;;;;;;;;;;21.10;93.70;;;;;;8357303;28;19924;-78
2023/06/17 19:17:21;;;;;;;;;;;20.60;94.80;;;;;;8364479;28;20461;-77
2023/06/17 19:21:22;;;;;;;;;;;20.70;95.10;;;;;;8361137;28;20365;-78
2023/06/17 19:25:22;;;;;;;;;;;20.10;95.20;;;;;;8334976;28;19927;-78
2023/06/17 19:29:23;;;;;;;;;;;20.30;96.00;;;;;;8348569;28;20072;-77
2023/06/17 19:33:23;;;;;;;;;;;19.60;96.80;;;;;;8333853;28;19917;-78
2023/06/17 19:37:27;;;;;;;;;;;19.50;98.00;;;;;;8363576;28;19921;-78
2023/06/17 19:41:29;;;;;;;;;;;19.20;99.70;;;;;;8367636;28;20205;-78
2023/06/17 19:45:30;;;;;;;;;;;19.20;99.90;;;;;;8351873;28;19921;-78
2023/06/17 19:49:30;;;;;;;;;;;19.00;99.90;;;;;;8360743;28;20397;-80
2023/06/17 19:53:31;;;;;;;;;;;19.20;99.90;;;;;;8363305;28;19909;-81
2023/06/17 19:57:31;;;;;;;;;;;19.40;99.90;;;;;;8364385;28;19921;-81
2023/06/17 20:01:32;;;;;;;;;;;18.50;99.90;;;;;;8358517;28;19927;-80
2023/06/17 20:05:32;;;;;;;;;;;18.40;99.90;;;;;;8381742;28;19917;-81
2023/06/17 20:09:33;;;;;;;;;;;18.00;99.90;;;;;;8364654;28;19912;-80
2023/06/17 20:13:33;;;;;;;;;;;17.40;99.90;;;;;;8354787;28;19963;-81
2023/06/17 20:17:34;;;;;;;;;;;17.30;99.90;;;;;;8382982;28;19936;-80
2023/06/17 20:21:34;;;;;;;;;;;17.30;99.90;;;;;;8365775;28;19923;-81
2023/06/17 20:25:35;;;;;;;;;;;17.20;99.90;;;;;;8350684;28;19963;-80
2023/06/17 20:29:35;;;;;;;;;;;17.20;99.90;;;;;;8368461;28;19908;-80
2023/06/17 20:33:37;;;;;;;;;;;16.60;99.90;;;;;;8351384;28;19922;-80
2023/06/17 20:37:38;;;;;;;;;;;16.50;99.90;;;;;;8365431;28;20517;-80
2023/06/17 20:41:38;;;;;;;;;;;16.40;99.90;;;;;;8364013;28;19908;-80
2023/06/17 20:45:39;;;;;;;;;;;16.70;99.90;;;;;;8367061;28;19920;-80
2023/06/17 20:49:40;;;;;;;;;;;16.00;99.90;;;;;;8362317;28;19909;-81
2023/06/17 20:53:40;;;;;;;;;;;16.30;99.90;;;;;;8357347;28;19916;-81
2023/06/17 20:57:42;;;;;;;;;;;15.60;99.90;;;;;;8385568;28;19995;-81
2023/06/17 21:01:42;;;;;;;;;;;15.50;99.90;;;;;;8384933;28;19973;-81
2023/06/17 21:05:42;;;;;;;;;;;15.40;99.90;;;;;;8360215;28;19962;-80
2023/06/17 21:09:43;;;;;;;;;;;15.70;99.90;;;;;;8354963;28;19917;-80
2023/06/17 21:13:43;;;;;;;;;;;15.50;99.90;;;;;;8385266;28;19955;-79
2023/06/17 21:17:44;;;;;;;;;;;15.40;99.90;;;;;;8365988;28;19982;-80
2023/06/17 21:21:45;;;;;;;;;;;15.10;99.90;;;;;;8374968;28;20517;-80
2023/06/17 21:25:45;;;;;;;;;;;14.90;99.90;;;;;;8364828;28;19916;-80
2023/06/17 21:29:45;;;;;;;;;;;14.80;99.90;;;;;;8384787;28;19974;-80
2023/06/17 21:33:46;;;;;;;;;;;14.70;99.90;;;;;;8376065;28;19909;-80
2023/06/17 21:37:46;;;;;;;;;;;14.20;99.90;;;;;;8365671;28;20022;-80
2023/06/17 21:41:47;;;;;;;;;;;14.50;99.90;;;;;;8377324;28;19944;-81
2023/06/17 21:45:47;;;;;;;;;;;13.80;99.90;;;;;;8364622;28;19944;-79
2023/06/17 21:49:48;;;;;;;;;;;13.70;99.90;;;;;;8358389;28;19943;-81
2023/06/17 21:53:48;;;;;;;;;;;14.00;99.90;;;;;;8365803;28;19923;-80
2023/06/17 21:57:49;;;;;;;;;;;13.80;99.90;;;;;;8365233;28;20305;-79
2023/06/17 22:01:49;;;;;;;;;;;13.80;99.90;;;;;;8365153;28;20014;-80
2023/06/17 22:05:50;;;;;;;;;;;13.50;99.90;;;;;;8355910;28;19981;-81
2023/06/17 22:09:51;;;;;;;;;;;13.50;99.90;;;;;;8355239;28;19912;-80
2023/06/17 22:13:51;;;;;;;;;;;13.60;99.90;;;;;;8364625;28;19917;-80
2023/06/17 22:17:53;;;;;;;;;;;14.00;99.90;;;;;;8388399;28;19913;-80
2023/06/17 22:21:53;;;;;;;;;;;13.50;99.90;;;;;;8367909;28;19908;-80
2023/06/17 22:25:55;;;;;;;;;;;13.50;99.90;;;;;;8366951;28;20089;-80
2023/06/17 22:29:55;;;;;;;;;;;13.20;99.90;;;;;;8361636;28;19974;-80
2023/06/17 22:33:56;;;;;;;;;;;13.10;99.90;;;;;;8336216;28;19913;-79
2023/06/17 22:37:56;;;;;;;;;;;12.80;99.90;;;;;;8363169;28;19917;-79
2023/06/17 22:41:57;;;;;;;;;;;12.90;99.90;;;;;;8367601;28;19920;-80
2023/06/17 22:45:57;;;;;;;;;;;13.10;99.90;;;;;;8390903;28;19912;-80
2023/06/17 22:49:58;;;;;;;;;;;12.90;99.90;;;;;;8379656;28;19909;-79
2023/06/17 22:53:58;;;;;;;;;;;12.70;99.90;;;;;;8367984;28;19947;-80
2023/06/17 22:57:58;;;;;;;;;;;13.40;99.90;;;;;;8386318;28;19920;-80
2023/06/17 23:01:59;;;;;;;;;;;13.30;99.90;;;;;;8370267;28;19913;-80
2023/06/17 23:05:59;;;;;;;;;;;13.30;99.90;;;;;;8387830;28;20606;-80
2023/06/17 23:10:00;;;;;;;;;;;13.10;99.90;;;;;;8379483;28;20027;-79
2023/06/17 23:14:00;;;;;;;;;;;12.50;99.90;;;;;;8387599;28;20511;-80
2023/06/17 23:18:01;;;;;;;;;;;12.40;99.90;;;;;;8390915;28;19961;-80
2023/06/17 23:22:01;;;;;;;;;;;12.40;99.90;;;;;;8352999;28;19909;-80
2023/06/17 23:26:02;;;;;;;;;;;12.20;99.90;;;;;;8358715;28;19913;-80
2023/06/17 23:30:02;;;;;;;;;;;11.90;99.90;;;;;;8361052;28;19913;-80
2023/06/17 23:34:03;;;;;;;;;;;11.90;99.90;;;;;;8350403;28;20550;-80